sensor_id;sensor_type;location;lat;lon;timestamp;pressure;altitude;pressure_sealevel;temperature;humidity
46714;BME280;32445;51.376;10.874;2023-05-12T00:02:46;99424.06;;;14.76;53.19
46714;BME280;32445;51.376;10.874;2023-05-12T00:05:46;99433.00;;;14.72;53.36
46714;BME280;32445;51.376;10.874;2023-05-12T00:08:47;99432.19;;;14.69;53.37
46714;BME280;32445;51.376;10.874;2023-05-12T00:11:47;99431.50;;;14.66;53.34
46714;BME280;32445;51.376;10.874;2023-05-12T00:14:48;99433.31;;;14.64;53.49
46714;BME280;32445;51.376;10.874;2023-05-12T00:17:48;99425.66;;;14.59;53.31
46714;BME280;32445;51.376;10.874;2023-05-12T00:20:51;99426.56;;;14.58;53.65
46714;BME280;32445;51.376;10.874;2023-05-12T00:23:53;99428.41;;;14.56;53.59
46714;BME280;32445;51.376;10.874;2023-05-12T00:26:53;99427.69;;;14.52;53.63
46714;BME280;32445;51.376;10.874;2023-05-12T00:29:54;99428.63;;;14.51;53.54
46714;BME280;32445;51.376;10.874;2023-05-12T00:32:54;99423.47;;;14.50;53.73
46714;BME280;32445;51.376;10.874;2023-05-12T00:35:54;99422.59;;;14.49;54.20
46714;BME280;32445;51.376;10.874;2023-05-12T00:38:55;99426.19;;;14.47;53.93
46714;BME280;32445;51.376;10.874;2023-05-12T00:41:56;99426.31;;;14.44;53.95
46714;BME280;32445;51.376;10.874;2023-05-12T00:44:57;99430.69;;;14.43;54.32
46714;BME280;32445;51.376;10.874;2023-05-12T00:47:57;99416.84;;;14.41;54.13
46714;BME280;32445;51.376;10.874;2023-05-12T00:50:58;99423.84;;;14.41;54.07
46714;BME280;32445;51.376;10.874;2023-05-12T00:53:59;99428.28;;;14.39;54.10
46714;BME280;32445;51.376;10.874;2023-05-12T00:57:00;99436.19;;;14.37;53.74
46714;BME280;32445;51.376;10.874;2023-05-12T01:00:00;99421.44;;;14.36;54.17
46714;BME280;32445;51.376;10.874;2023-05-12T01:03:01;99417.19;;;14.33;54.06
46714;BME280;32445;51.376;10.874;2023-05-12T01:09:20;99415.56;;;14.31;54.50
46714;BME280;32445;51.376;10.874;2023-05-12T01:12:24;99421.69;;;14.30;54.37
46714;BME280;32445;51.376;10.874;2023-05-12T01:15:25;99420.00;;;14.29;54.39
46714;BME280;32445;51.376;10.874;2023-05-12T01:18:26;99420.06;;;14.27;54.60
46714;BME280;32445;51.376;10.874;2023-05-12T01:21:26;99424.44;;;14.27;54.49
46714;BME280;32445;51.376;10.874;2023-05-12T01:24:29;99424.50;;;14.25;54.73
46714;BME280;32445;51.376;10.874;2023-05-12T01:27:32;99426.25;;;14.25;54.72
46714;BME280;32445;51.376;10.874;2023-05-12T01:30:33;99428.06;;;14.23;54.67
46714;BME280;32445;51.376;10.874;2023-05-12T01:33:34;99434.22;;;14.22;54.94
46714;BME280;32445;51.376;10.874;2023-05-12T01:36:34;99435.13;;;14.21;54.85
46714;BME280;32445;51.376;10.874;2023-05-12T01:39:35;99430.81;;;14.19;54.68
46714;BME280;32445;51.376;10.874;2023-05-12T01:42:38;99429.06;;;14.20;54.91
46714;BME280;32445;51.376;10.874;2023-05-12T01:45:39;99421.38;;;14.17;54.81
46714;BME280;32445;51.376;10.874;2023-05-12T01:48:39;99431.81;;;14.17;54.92
46714;BME280;32445;51.376;10.874;2023-05-12T01:51:39;99426.63;;;14.15;55.01
46714;BME280;32445;51.376;10.874;2023-05-12T01:54:40;99426.69;;;14.14;54.76
46714;BME280;32445;51.376;10.874;2023-05-12T01:57:40;99427.63;;;14.13;54.97
46714;BME280;32445;51.376;10.874;2023-05-12T02:00:40;99442.44;;;14.12;55.11
46714;BME280;32445;51.376;10.874;2023-05-12T02:03:41;99436.38;;;14.12;54.90
46714;BME280;32445;51.376;10.874;2023-05-12T02:06:41;99442.50;;;14.11;54.79
46714;BME280;32445;51.376;10.874;2023-05-12T02:09:42;99442.56;;;14.09;54.80
46714;BME280;32445;51.376;10.874;2023-05-12T02:12:42;99442.63;;;14.08;54.89
46714;BME280;32445;51.376;10.874;2023-05-12T02:15:43;99438.31;;;14.07;54.88
46714;BME280;32445;51.376;10.874;2023-05-12T02:18:43;99443.59;;;14.05;55.05
46714;BME280;32445;51.376;10.874;2023-05-12T02:21:43;99436.63;;;14.06;54.85
46714;BME280;32445;51.376;10.874;2023-05-12T02:24:45;99441.94;;;14.04;54.98
46714;BME280;32445;51.376;10.874;2023-05-12T02:27:46;99450.66;;;14.03;55.11
46714;BME280;32445;51.376;10.874;2023-05-12T02:30:47;99441.97;;;14.02;54.98
46714;BME280;32445;51.376;10.874;2023-05-12T02:33:48;99435.84;;;14.04;54.53
46714;BME280;32445;51.376;10.874;2023-05-12T02:36:50;99441.94;;;14.04;54.10
46714;BME280;32445;51.376;10.874;2023-05-12T02:39:51;99435.91;;;14.02;54.43
46714;BME280;32445;51.376;10.874;2023-05-12T02:42:51;99439.47;;;13.99;54.84
46714;BME280;32445;51.376;10.874;2023-05-12T02:45:53;99444.69;;;13.99;54.72
46714;BME280;32445;51.376;10.874;2023-05-12T02:48:53;99438.72;;;13.97;54.77
46714;BME280;32445;51.376;10.874;2023-05-12T02:51:53;99436.09;;;13.97;54.85
46714;BME280;32445;51.376;10.874;2023-05-12T02:54:54;99438.78;;;13.96;54.54
46714;BME280;32445;51.376;10.874;2023-05-12T02:57:56;99431.00;;;13.94;54.96
46714;BME280;32445;51.376;10.874;2023-05-12T03:00:56;99428.41;;;13.94;55.02
46714;BME280;32445;51.376;10.874;2023-05-12T03:03:56;99425.84;;;13.93;55.19
46714;BME280;32445;51.376;10.874;2023-05-12T03:06:57;99425.00;;;13.92;55.14
46714;BME280;32445;51.376;10.874;2023-05-12T03:09:57;99433.75;;;13.91;55.09
46714;BME280;32445;51.376;10.874;2023-05-12T03:12:58;99422.50;;;13.89;55.20
46714;BME280;32445;51.376;10.874;2023-05-12T03:15:58;99429.50;;;13.89;55.14
46714;BME280;32445;51.376;10.874;2023-05-12T03:19:00;99426.09;;;13.87;55.29
46714;BME280;32445;51.376;10.874;2023-05-12T03:22:01;99426.09;;;13.87;55.28
46714;BME280;32445;51.376;10.874;2023-05-12T03:25:02;99425.31;;;13.84;55.41
46714;BME280;32445;51.376;10.874;2023-05-12T03:28:04;99419.25;;;13.84;55.14
46714;BME280;32445;51.376;10.874;2023-05-12T03:31:04;99421.91;;;13.82;55.06
46714;BME280;32445;51.376;10.874;2023-05-12T03:34:05;99416.69;;;13.82;55.26
46714;BME280;32445;51.376;10.874;2023-05-12T03:37:05;99415.84;;;13.82;55.40
46714;BME280;32445;51.376;10.874;2023-05-12T03:40:06;99423.75;;;13.80;55.41
46714;BME280;32445;51.376;10.874;2023-05-12T03:43:07;99426.34;;;13.80;55.20
46714;BME280;32445;51.376;10.874;2023-05-12T03:46:07;99419.50;;;13.78;55.46
46714;BME280;32445;51.376;10.874;2023-05-12T03:49:07;99427.31;;;13.78;55.42
46714;BME280;32445;51.376;10.874;2023-05-12T03:52:08;99418.66;;;13.77;55.38
46714;BME280;32445;51.376;10.874;2023-05-12T03:55:09;99418.66;;;13.77;55.28
46714;BME280;32445;51.376;10.874;2023-05-12T03:58:09;99428.22;;;13.77;55.39
46714;BME280;32445;51.376;10.874;2023-05-12T04:01:10;99423.06;;;13.75;55.35
46714;BME280;32445;51.376;10.874;2023-05-12T04:04:10;99426.53;;;13.76;55.44
46714;BME280;32445;51.376;10.874;2023-05-12T04:07:10;99419.69;;;13.73;55.62
46714;BME280;32445;51.376;10.874;2023-05-12T04:10:11;99424.91;;;13.73;55.75
46714;BME280;32445;51.376;10.874;2023-05-12T04:13:11;99425.75;;;13.74;55.77
46714;BME280;32445;51.376;10.874;2023-05-12T04:16:12;99428.34;;;13.74;55.61
46714;BME280;32445;51.376;10.874;2023-05-12T04:19:13;99429.28;;;13.73;56.55
46714;BME280;32445;51.376;10.874;2023-05-12T04:22:13;99429.28;;;13.73;56.34
46714;BME280;32445;51.376;10.874;2023-05-12T04:25:14;99430.13;;;13.73;56.34
46714;BME280;32445;51.376;10.874;2023-05-12T04:28:14;99430.97;;;13.74;55.98
46714;BME280;32445;51.376;10.874;2023-05-12T04:31:15;99441.31;;;13.75;56.09
46714;BME280;32445;51.376;10.874;2023-05-12T04:34:15;99439.59;;;13.76;56.56
46714;BME280;32445;51.376;10.874;2023-05-12T04:37:15;99436.09;;;13.75;56.39
46714;BME280;32445;51.376;10.874;2023-05-12T04:40:16;99445.56;;;13.78;56.14
46714;BME280;32445;51.376;10.874;2023-05-12T04:43:16;99443.78;;;13.80;56.46
46714;BME280;32445;51.376;10.874;2023-05-12T04:46:16;99441.09;;;13.81;56.59
46714;BME280;32445;51.376;10.874;2023-05-12T04:49:17;99447.97;;;13.84;56.07
46714;BME280;32445;51.376;10.874;2023-05-12T04:52:17;99452.25;;;13.85;56.16
46714;BME280;32445;51.376;10.874;2023-05-12T04:55:17;99449.56;;;13.87;56.73
46714;BME280;32445;51.376;10.874;2023-05-12T04:58:18;99448.59;;;13.89;56.65
46714;BME280;32445;51.376;10.874;2023-05-12T05:01:18;99452.06;;;13.90;56.92
46714;BME280;32445;51.376;10.874;2023-05-12T05:04:19;99455.53;;;13.90;56.94
46714;BME280;32445;51.376;10.874;2023-05-12T05:07:19;99453.69;;;13.92;57.15
46714;BME280;32445;51.376;10.874;2023-05-12T05:10:20;99460.50;;;13.96;57.77
46714;BME280;32445;51.376;10.874;2023-05-12T05:13:20;99449.97;;;13.98;57.36
46714;BME280;32445;51.376;10.874;2023-05-12T05:16:21;99452.47;;;14.01;57.29
46714;BME280;32445;51.376;10.874;2023-05-12T05:19:21;99457.59;;;14.04;57.34
46714;BME280;32445;51.376;10.874;2023-05-12T05:22:22;99460.91;;;14.08;57.28
46714;BME280;32445;51.376;10.874;2023-05-12T05:25:22;99454.66;;;14.12;57.45
46714;BME280;32445;51.376;10.874;2023-05-12T05:28:22;99461.56;;;14.13;57.77
46714;BME280;32445;51.376;10.874;2023-05-12T05:31:23;99457.06;;;14.16;57.76
46714;BME280;32445;51.376;10.874;2023-05-12T05:34:23;99460.41;;;14.20;57.85
46714;BME280;32445;51.376;10.874;2023-05-12T05:37:24;99456.75;;;14.24;57.75
46714;BME280;32445;51.376;10.874;2023-05-12T05:40:24;99464.44;;;14.27;58.23
46714;BME280;32445;51.376;10.874;2023-05-12T05:43:25;99459.16;;;14.29;58.54
46714;BME280;32445;51.376;10.874;2023-05-12T05:46:25;99469.53;;;14.30;58.46
46714;BME280;32445;51.376;10.874;2023-05-12T05:49:25;99469.34;;;14.35;58.67
46714;BME280;32445;51.376;10.874;2023-05-12T05:52:26;99468.31;;;14.39;58.39
46714;BME280;32445;51.376;10.874;2023-05-12T05:55:26;99473.25;;;14.45;58.41
46714;BME280;32445;51.376;10.874;2023-05-12T05:58:26;99473.97;;;14.49;59.02
46714;BME280;32445;51.376;10.874;2023-05-12T06:01:27;99476.31;;;14.55;58.98
46714;BME280;32445;51.376;10.874;2023-05-12T06:04:27;99477.00;;;14.60;58.95
46714;BME280;32445;51.376;10.874;2023-05-12T06:07:28;99479.34;;;14.66;58.96
46714;BME280;32445;51.376;10.874;2023-05-12T06:10:28;99486.16;;;14.70;59.27
46714;BME280;32445;51.376;10.874;2023-05-12T06:13:28;99497.19;;;14.77;59.36
46714;BME280;32445;51.376;10.874;2023-05-12T06:16:29;99492.47;;;14.85;59.52
46714;BME280;32445;51.376;10.874;2023-05-12T06:19:29;99501.72;;;14.93;60.02
46714;BME280;32445;51.376;10.874;2023-05-12T06:22:30;99505.06;;;14.96;59.92
46714;BME280;32445;51.376;10.874;2023-05-12T06:25:30;99503.88;;;15.03;60.05
46714;BME280;32445;51.376;10.874;2023-05-12T06:28:32;99493.13;;;15.10;60.25
46714;BME280;32445;51.376;10.874;2023-05-12T06:31:33;99495.50;;;15.16;60.76
46714;BME280;32445;51.376;10.874;2023-05-12T06:34:33;99502.19;;;15.21;61.34
46714;BME280;32445;51.376;10.874;2023-05-12T06:37:34;99500.28;;;15.25;61.34
46714;BME280;32445;51.376;10.874;2023-05-12T06:40:34;99504.41;;;15.31;60.87
46714;BME280;32445;51.376;10.874;2023-05-12T06:43:34;99495.41;;;15.36;61.29
46714;BME280;32445;51.376;10.874;2023-05-12T06:46:35;99497.59;;;15.46;60.93
46714;BME280;32445;51.376;10.874;2023-05-12T06:49:35;99491.88;;;15.56;61.08
46714;BME280;32445;51.376;10.874;2023-05-12T06:52:37;99491.34;;;15.67;60.96
46714;BME280;32445;51.376;10.874;2023-05-12T06:55:37;99485.84;;;15.73;60.12
46714;BME280;32445;51.376;10.874;2023-05-12T06:58:38;99480.28;;;15.81;60.23
46714;BME280;32445;51.376;10.874;2023-05-12T07:01:38;99491.00;;;15.94;60.07
46714;BME280;32445;51.376;10.874;2023-05-12T07:04:40;99479.22;;;16.03;60.57
46714;BME280;32445;51.376;10.874;2023-05-12T07:07:40;99484.69;;;16.16;59.57
46714;BME280;32445;51.376;10.874;2023-05-12T07:10:40;99485.94;;;16.26;59.16
46714;BME280;32445;51.376;10.874;2023-05-12T07:13:41;99494.03;;;16.39;59.14
46714;BME280;32445;51.376;10.874;2023-05-12T07:16:41;99490.72;;;16.53;58.68
46714;BME280;32445;51.376;10.874;2023-05-12T07:19:42;99491.78;;;16.66;58.30
46714;BME280;32445;51.376;10.874;2023-05-12T07:22:42;99487.84;;;16.75;58.15
46714;BME280;32445;51.376;10.874;2023-05-12T07:25:43;99492.53;;;16.86;56.85
46714;BME280;32445;51.376;10.874;2023-05-12T07:28:43;99498.09;;;16.97;56.25
46714;BME280;32445;51.376;10.874;2023-05-12T07:31:43;99498.28;;;17.10;56.34
46714;BME280;32445;51.376;10.874;2023-05-12T07:34:44;99500.94;;;17.26;55.97
46714;BME280;32445;51.376;10.874;2023-05-12T07:37:44;99502.91;;;17.38;55.42
46714;BME280;32445;51.376;10.874;2023-05-12T07:40:44;99495.47;;;17.46;54.62
46714;BME280;32445;51.376;10.874;2023-05-12T07:43:45;99502.63;;;17.59;53.70
46714;BME280;32445;51.376;10.874;2023-05-12T07:46:45;99502.97;;;17.69;53.76
46714;BME280;32445;51.376;10.874;2023-05-12T07:49:46;99496.28;;;17.79;54.30
46714;BME280;32445;51.376;10.874;2023-05-12T07:52:51;99498.50;;;17.87;53.98
46714;BME280;32445;51.376;10.874;2023-05-12T07:55:52;99499.00;;;17.93;53.42
46714;BME280;32445;51.376;10.874;2023-05-12T07:58:52;99495.97;;;18.01;53.29
46714;BME280;32445;51.376;10.874;2023-05-12T08:01:52;99493.72;;;18.09;52.90
46714;BME280;32445;51.376;10.874;2023-05-12T08:04:53;99489.78;;;18.16;53.04
46714;BME280;32445;51.376;10.874;2023-05-12T08:07:53;99497.44;;;18.21;53.01
46714;BME280;32445;51.376;10.874;2023-05-12T08:10:54;99493.53;;;18.28;52.97
46714;BME280;32445;51.376;10.874;2023-05-12T08:13:54;99494.94;;;18.34;52.67
46714;BME280;32445;51.376;10.874;2023-05-12T08:16:54;99497.09;;;18.42;53.15
46714;BME280;32445;51.376;10.874;2023-05-12T08:19:54;99500.97;;;18.50;52.94
46714;BME280;32445;51.376;10.874;2023-05-12T08:22:55;99509.34;;;18.57;52.71
46714;BME280;32445;51.376;10.874;2023-05-12T08:25:55;99507.19;;;18.64;52.24
46714;BME280;32445;51.376;10.874;2023-05-12T08:28:56;99507.38;;;18.75;52.34
46714;BME280;32445;51.376;10.874;2023-05-12T08:31:57;99503.34;;;18.84;51.85
46714;BME280;32445;51.376;10.874;2023-05-12T08:34:59;99510.84;;;18.92;51.70
46714;BME280;32445;51.376;10.874;2023-05-12T08:38:00;99510.25;;;19.01;51.19
46714;BME280;32445;51.376;10.874;2023-05-12T08:41:23;99508.00;;;19.09;50.70
46714;BME280;32445;51.376;10.874;2023-05-12T08:44:24;99514.09;;;19.24;49.42
46714;BME280;32445;51.376;10.874;2023-05-12T08:47:26;99511.75;;;19.34;50.63
46714;BME280;32445;51.376;10.874;2023-05-12T08:50:28;99512.78;;;19.46;50.47
46714;BME280;32445;51.376;10.874;2023-05-12T08:53:34;99519.16;;;19.56;50.19
46714;BME280;32445;51.376;10.874;2023-05-12T08:56:44;99516.78;;;19.66;49.31
46714;BME280;32445;51.376;10.874;2023-05-12T08:59:50;99518.72;;;19.77;49.10
46714;BME280;32445;51.376;10.874;2023-05-12T09:02:53;99522.47;;;19.87;49.05
46714;BME280;32445;51.376;10.874;2023-05-12T09:05:56;99527.06;;;19.98;49.27
46714;BME280;32445;51.376;10.874;2023-05-12T09:08:57;99521.00;;;20.10;48.83
46714;BME280;32445;51.376;10.874;2023-05-12T09:12:00;99515.00;;;20.21;48.64
46714;BME280;32445;51.376;10.874;2023-05-12T09:15:05;99513.13;;;20.36;48.12
46714;BME280;32445;51.376;10.874;2023-05-12T09:18:09;99523.63;;;20.50;48.08
46714;BME280;32445;51.376;10.874;2023-05-12T09:21:09;99515.75;;;20.63;46.07
46714;BME280;32445;51.376;10.874;2023-05-12T09:24:10;99516.19;;;20.70;46.65
46714;BME280;32445;51.376;10.874;2023-05-12T09:27:13;99517.78;;;20.85;46.28
46714;BME280;32445;51.376;10.874;2023-05-12T09:30:30;99519.69;;;20.96;46.16
46714;BME280;32445;51.376;10.874;2023-05-12T09:33:33;99501.63;;;21.03;44.34
46714;BME280;32445;51.376;10.874;2023-05-12T09:36:36;99510.56;;;21.13;44.62
46714;BME280;32445;51.376;10.874;2023-05-12T09:39:37;99509.41;;;21.17;43.52
46714;BME280;32445;51.376;10.874;2023-05-12T09:42:37;99511.53;;;21.25;44.40
46714;BME280;32445;51.376;10.874;2023-05-12T09:45:38;99507.88;;;21.39;43.96
46714;BME280;32445;51.376;10.874;2023-05-12T09:48:38;99515.88;;;21.50;42.70
46714;BME280;32445;51.376;10.874;2023-05-12T09:51:39;99509.88;;;21.61;43.13
46714;BME280;32445;51.376;10.874;2023-05-12T09:54:40;99502.25;;;21.69;42.61
46714;BME280;32445;51.376;10.874;2023-05-12T09:57:42;99498.69;;;21.82;42.76
46714;BME280;32445;51.376;10.874;2023-05-12T10:00:43;99503.22;;;21.92;41.99
46714;BME280;32445;51.376;10.874;2023-05-12T10:03:45;99501.34;;;22.06;42.28
46714;BME280;32445;51.376;10.874;2023-05-12T10:06:48;99506.31;;;22.22;41.80
46714;BME280;32445;51.376;10.874;2023-05-12T10:09:48;99494.53;;;22.39;41.78
46714;BME280;32445;51.376;10.874;2023-05-12T10:12:49;99508.03;;;22.58;40.69
46714;BME280;32445;51.376;10.874;2023-05-12T10:15:54;99499.53;;;22.77;39.08
46714;BME280;32445;51.376;10.874;2023-05-12T10:18:58;99499.91;;;22.95;39.21
46714;BME280;32445;51.376;10.874;2023-05-12T10:22:02;99497.78;;;23.12;37.68
46714;BME280;32445;51.376;10.874;2023-05-12T10:25:05;99500.16;;;23.26;37.13
46714;BME280;32445;51.376;10.874;2023-05-12T10:28:10;99493.66;;;23.42;37.37
46714;BME280;32445;51.376;10.874;2023-05-12T10:31:11;99497.00;;;23.55;37.32
46714;BME280;32445;51.376;10.874;2023-05-12T10:34:18;99493.84;;;23.73;38.97
46714;BME280;32445;51.376;10.874;2023-05-12T10:37:21;99498.25;;;23.95;38.38
46714;BME280;32445;51.376;10.874;2023-05-12T10:40:23;99496.59;;;24.15;36.96
46714;BME280;32445;51.376;10.874;2023-05-12T10:43:26;99485.41;;;24.32;35.52
46714;BME280;32445;51.376;10.874;2023-05-12T10:46:27;99483.72;;;24.52;35.30
46714;BME280;32445;51.376;10.874;2023-05-12T10:49:38;99487.63;;;24.69;34.33
46714;BME280;32445;51.376;10.874;2023-05-12T10:52:40;99481.97;;;24.84;35.30
46714;BME280;32445;51.376;10.874;2023-05-12T10:55:41;99488.69;;;25.09;37.30
46714;BME280;32445;51.376;10.874;2023-05-12T10:59:05;99480.41;;;25.33;34.24
46714;BME280;32445;51.376;10.874;2023-05-12T11:02:12;99483.09;;;25.53;33.56
46714;BME280;32445;51.376;10.874;2023-05-12T11:05:15;99485.78;;;25.72;33.68
46714;BME280;32445;51.376;10.874;2023-05-12T11:08:15;99490.28;;;25.91;34.06
46714;BME280;32445;51.376;10.874;2023-05-12T11:11:19;99488.47;;;26.12;32.81
46714;BME280;32445;51.376;10.874;2023-05-12T11:14:20;99481.22;;;26.23;32.13
46714;BME280;32445;51.376;10.874;2023-05-12T11:17:21;99472.81;;;26.28;31.74
46714;BME280;32445;51.376;10.874;2023-05-12T11:20:25;99478.13;;;26.38;31.67
46714;BME280;32445;51.376;10.874;2023-05-12T11:23:26;99473.75;;;26.56;31.65
46714;BME280;32445;51.376;10.874;2023-05-12T11:26:29;99483.81;;;26.72;30.76
46714;BME280;32445;51.376;10.874;2023-05-12T11:29:30;99482.09;;;26.81;30.94
46714;BME280;32445;51.376;10.874;2023-05-12T11:32:30;99491.19;;;26.88;31.77
46714;BME280;32445;51.376;10.874;2023-05-12T11:35:31;99469.03;;;26.88;29.49
46714;BME280;32445;51.376;10.874;2023-05-12T11:38:31;99479.81;;;26.86;30.22
46714;BME280;32445;51.376;10.874;2023-05-12T11:41:32;99472.91;;;26.93;29.33
46714;BME280;32445;51.376;10.874;2023-05-12T11:44:32;99486.56;;;27.18;30.93
46714;BME280;32445;51.376;10.874;2023-05-12T11:47:33;99478.28;;;27.49;31.26
46714;BME280;32445;51.376;10.874;2023-05-12T11:50:39;99461.94;;;27.80;29.18
46714;BME280;32445;51.376;10.874;2023-05-12T11:53:40;99466.75;;;28.12;28.94
46714;BME280;32445;51.376;10.874;2023-05-12T11:56:55;99461.69;;;28.27;27.77
46714;BME280;32445;51.376;10.874;2023-05-12T12:00:06;99475.56;;;28.31;27.09
46714;BME280;32445;51.376;10.874;2023-05-12T12:03:11;99484.00;;;28.44;26.71
46714;BME280;32445;51.376;10.874;2023-05-12T12:06:13;99471.25;;;28.56;27.30
46714;BME280;32445;51.376;10.874;2023-05-12T12:09:13;99472.22;;;28.73;27.59
46714;BME280;32445;51.376;10.874;2023-05-12T12:12:17;99474.59;;;28.85;27.35
46714;BME280;32445;51.376;10.874;2023-05-12T12:15:18;99478.72;;;29.05;27.64
46714;BME280;32445;51.376;10.874;2023-05-12T12:18:18;99482.81;;;29.26;26.66
46714;BME280;32445;51.376;10.874;2023-05-12T12:21:19;99478.38;;;29.34;26.92
46714;BME280;32445;51.376;10.874;2023-05-12T12:24:21;99482.22;;;29.40;25.61
46714;BME280;32445;51.376;10.874;2023-05-12T12:27:21;99480.06;;;29.52;27.10
46714;BME280;32445;51.376;10.874;2023-05-12T12:30:22;99477.09;;;29.72;26.61
46714;BME280;32445;51.376;10.874;2023-05-12T12:33:22;99483.66;;;30.10;29.69
46714;BME280;32445;51.376;10.874;2023-05-12T12:36:22;99493.72;;;30.33;26.07
46714;BME280;32445;51.376;10.874;2023-05-12T12:39:22;99489.38;;;30.32;25.88
46714;BME280;32445;51.376;10.874;2023-05-12T12:42:23;99494.91;;;30.22;25.35
46714;BME280;32445;51.376;10.874;2023-05-12T12:45:23;99490.38;;;30.14;29.44
46714;BME280;32445;51.376;10.874;2023-05-12T12:48:24;99483.66;;;30.10;26.48
46714;BME280;32445;51.376;10.874;2023-05-12T12:51:27;99480.00;;;30.19;25.83
46714;BME280;32445;51.376;10.874;2023-05-12T12:54:30;99484.00;;;30.40;24.58
46714;BME280;32445;51.376;10.874;2023-05-12T12:57:30;99486.00;;;30.54;28.75
46714;BME280;32445;51.376;10.874;2023-05-12T13:00:30;99488.69;;;30.54;25.43
46714;BME280;32445;51.376;10.874;2023-05-12T13:03:30;99485.38;;;30.52;29.54
46714;BME280;32445;51.376;10.874;2023-05-12T13:06:31;99488.03;;;30.52;26.99
46714;BME280;32445;51.376;10.874;2023-05-12T13:09:31;99486.53;;;30.50;30.38
46714;BME280;32445;51.376;10.874;2023-05-12T13:12:31;99494.41;;;30.43;26.80
46714;BME280;32445;51.376;10.874;2023-05-12T13:15:32;99485.03;;;30.31;30.28
46714;BME280;32445;51.376;10.874;2023-05-12T13:18:32;99476.81;;;30.24;26.69
46714;BME280;32445;51.376;10.874;2023-05-12T13:21:32;99479.00;;;30.20;30.49
46714;BME280;32445;51.376;10.874;2023-05-12T13:24:34;99481.34;;;30.32;27.42
46714;BME280;32445;51.376;10.874;2023-05-12T13:27:34;99480.66;;;30.54;30.53
46714;BME280;32445;51.376;10.874;2023-05-12T13:30:35;99485.81;;;30.81;27.46
46714;BME280;32445;51.376;10.874;2023-05-12T13:33:35;99484.41;;;30.93;30.33
46714;BME280;32445;51.376;10.874;2023-05-12T13:36:35;99476.56;;;30.92;26.74
46714;BME280;32445;51.376;10.874;2023-05-12T13:39:36;99483.25;;;30.87;30.21
46714;BME280;32445;51.376;10.874;2023-05-12T13:42:36;99476.91;;;30.80;26.47
46714;BME280;32445;51.376;10.874;2023-05-12T13:45:37;99478.59;;;30.81;29.65
46714;BME280;32445;51.376;10.874;2023-05-12T13:48:37;99484.59;;;30.92;26.46
46714;BME280;32445;51.376;10.874;2023-05-12T13:51:37;99481.72;;;30.93;29.39
46714;BME280;32445;51.376;10.874;2023-05-12T13:54:38;99471.56;;;30.80;25.55
46714;BME280;32445;51.376;10.874;2023-05-12T13:57:38;99476.78;;;30.74;29.50
46714;BME280;32445;51.376;10.874;2023-05-12T14:00:38;99473.44;;;30.63;24.49
46714;BME280;32445;51.376;10.874;2023-05-12T14:03:39;99477.16;;;30.54;29.31
46714;BME280;32445;51.376;10.874;2023-05-12T14:06:41;99471.63;;;30.47;26.44
46714;BME280;32445;51.376;10.874;2023-05-12T14:09:41;99472.28;;;30.58;29.67
46714;BME280;32445;51.376;10.874;2023-05-12T14:12:41;99471.44;;;30.74;26.17
46714;BME280;32445;51.376;10.874;2023-05-12T14:15:44;99475.75;;;30.83;25.60
46714;BME280;32445;51.376;10.874;2023-05-12T14:18:44;99475.88;;;30.98;28.91
46714;BME280;32445;51.376;10.874;2023-05-12T14:21:44;99482.00;;;31.15;26.00
46714;BME280;32445;51.376;10.874;2023-05-12T14:24:45;99474.78;;;31.23;29.38
46714;BME280;32445;51.376;10.874;2023-05-12T14:27:45;99474.94;;;31.22;25.83
46714;BME280;32445;51.376;10.874;2023-05-12T14:30:45;99474.28;;;31.20;29.13
46714;BME280;32445;51.376;10.874;2023-05-12T14:33:47;99471.63;;;31.20;24.61
46714;BME280;32445;51.376;10.874;2023-05-12T14:36:47;99474.28;;;31.20;29.02
46714;BME280;32445;51.376;10.874;2023-05-12T14:39:48;99476.53;;;31.08;25.18
46714;BME280;32445;51.376;10.874;2023-05-12T14:42:48;99477.06;;;30.95;28.84
46714;BME280;32445;51.376;10.874;2023-05-12T14:45:49;99478.09;;;30.78;25.66
46714;BME280;32445;51.376;10.874;2023-05-12T14:53:53;99485.63;;;29.75;26.20
46714;BME280;32445;51.376;10.874;2023-05-12T14:56:53;99497.50;;;29.73;29.68
46714;BME280;32445;51.376;10.874;2023-05-12T14:59:53;99489.97;;;29.68;27.17
46714;BME280;32445;51.376;10.874;2023-05-12T15:28:10;99496.38;;;28.98;27.27
46714;BME280;32445;51.376;10.874;2023-05-12T15:31:10;99490.97;;;28.90;27.55
46714;BME280;32445;51.376;10.874;2023-05-12T15:34:11;99496.97;;;28.83;27.47
46714;BME280;32445;51.376;10.874;2023-05-12T15:37:11;99494.09;;;28.77;27.38
46714;BME280;32445;51.376;10.874;2023-05-12T15:40:12;99495.25;;;28.74;30.28
46714;BME280;32445;51.376;10.874;2023-05-12T15:43:12;99495.72;;;28.70;29.64
46714;BME280;32445;51.376;10.874;2023-05-12T15:46:13;99489.88;;;28.66;31.55
46714;BME280;32445;51.376;10.874;2023-05-12T15:49:13;99492.00;;;28.62;29.15
46714;BME280;32445;51.376;10.874;2023-05-12T15:52:14;99490.91;;;28.55;29.63
46714;BME280;32445;51.376;10.874;2023-05-12T15:55:14;99492.38;;;28.49;29.09
46714;BME280;32445;51.376;10.874;2023-05-12T15:58:15;99484.34;;;28.41;29.93
46714;BME280;32445;51.376;10.874;2023-05-12T16:01:16;99490.59;;;28.32;29.34
46714;BME280;32445;51.376;10.874;2023-05-12T16:04:16;99494.88;;;28.25;29.41
46714;BME280;32445;51.376;10.874;2023-05-12T16:07:16;99489.47;;;28.17;30.15
46714;BME280;32445;51.376;10.874;2023-05-12T16:10:17;99488.25;;;28.11;31.62
46714;BME280;32445;51.376;10.874;2023-05-12T16:13:17;99484.50;;;28.04;30.08
46714;BME280;32445;51.376;10.874;2023-05-12T16:16:18;99487.50;;;28.01;28.55
46714;BME280;32445;51.376;10.874;2023-05-12T16:19:18;99479.66;;;27.99;28.60
46714;BME280;32445;51.376;10.874;2023-05-12T16:22:19;99478.50;;;28.02;29.68